Raporty najbliższych stacji METAR

 

EPPO - Poznan/Lawica, Poland
Odległość od stacji: Zd 102km
Aktualizacja: 18-11-17 11:30
Częściowe zachmurzenie
Częściowe zachmurzenie
 Wiatr z Ws
Wiatr: Ws 15 km/h
Temperatura: 1°C
Wind Chill: -3°C
Punkt Rosy: -1°C
Wilgotność: 87%
Ciśnienie: 1040 hPa
Zachmurzenie: Częściowe zachmurzenie
Widoczność: 6 km
Szczegóły o zachmurzeniu: Częściowe zachmurzenie 152 m
2018/11/17 10:30 EPPO 171030Z 08008KT 6000 SCT005 01/M01 Q1040
EPLL - Łódź, Ziemia Łódzka, Polska
Odległość od stacji: ES 127km
Aktualizacja: 18-11-17 11:30
Bezchmurnie
Bezchmurnie
 Wiatr z WsPnWs
Wiatr: WsPnWs 17 km/h
Temperatura: 3°C
Wind Chill: -1°C
Punkt Rosy: -6°C
Wilgotność: 52%
Ciśnienie: 1039 hPa
Podsumowanie: Bezchmurnie
Widoczność: większa niż 10 km
2018/11/17 10:30 EPLL 171030Z 06009KT CAVOK 03/M06 Q1039
EPWR - Wrocław, Dolny Śląsk, Polska
Odległość od stacji: PdZd 198km
Aktualizacja: 18-11-17 11:30
Bezchmurnie
Bezchmurnie
 Wiatr z Ws
Wiatr: Ws 11 km/h
Temperatura: 3°C
Wind Chill: 0°C
Punkt Rosy: -3°C
Wilgotność: 65%
Ciśnienie: 1038 hPa
Podsumowanie: Bezchmurnie
Widoczność: większa niż 10 km
2018/11/17 10:30 EPWR 171030Z 08006KT 050V130 CAVOK 03/M03 Q1038
 
EPWA - Warszawa, Mazowsze, Polska
Odległość od stacji: Ws 209km
Aktualizacja: 18-11-17 11:30
Bezchmurnie
Bezchmurnie
 Wiatr z WsPnWs
Wiatr: WsPnWs 11 km/h
Temperatura: 3°C
Wind Chill: 0°C
Punkt Rosy: -5°C
Wilgotność: 56%
Ciśnienie: 1040 hPa
Podsumowanie: Bezchmurnie
Widoczność: większa niż 10 km
2018/11/17 10:30 EPWA 171030Z 07006KT 020V120 CAVOK 03/M05 Q1040 NOSIG
EPGD - Gdańsk, Pomorze, Polska
Odległość od stacji: Pn 253km
Aktualizacja: 18-11-17 11:30
Bezchmurnie
Bezchmurnie
 Wiatr z WsPdWs
Wiatr: WsPdWs 7 km/h
Temperatura: 4°C
Wind Chill: 2°C
Punkt Rosy: 0°C
Wilgotność: 75%
Ciśnienie: 1041 hPa
Podsumowanie: Bezchmurnie
Widoczność: większa niż 10 km
2018/11/17 10:30 EPGD 171030Z 12004KT 080V140 CAVOK 04/M00 Q1041
EPKT - Katowice, Śląsk, Polska
Odległość od stacji: Pd 270km
Aktualizacja: 18-11-17 11:30
Bezchmurnie
Bezchmurnie
 Wiatr z WsPnWs
Wiatr: WsPnWs 19 km/h
Temperatura: 3°C
Wind Chill: -2°C
Punkt Rosy: -7°C
Wilgotność: 48%
Ciśnienie: 1036 hPa
Podsumowanie: Bezchmurnie
Widoczność: większa niż 10 km
2018/11/17 10:30 EPKT 171030Z 07010KT 040V100 CAVOK 03/M07 Q1036
 
EPSC - Szczecin, Pomorze Zachodnie, Polska
Odległość od stacji: PnZd 329km
Aktualizacja: 18-11-17 11:30
Bezchmurnie
Bezchmurnie
 Wiatr z PdWs
Wiatr: PdWs 9 km/h
Temperatura: 4°C
Wind Chill: 2°C
Punkt Rosy: 0°C
Wilgotność: 75%
Ciśnienie: 1040 hPa
Podsumowanie: Bezchmurnie
Widoczność: większa niż 10 km
2018/11/17 10:30 EPSC 171030Z 14005KT CAVOK 04/00 Q1040
EPBY - Bydgoszcz
Odległość od stacji: Pn 95km
Aktualizacja: 18-11-17 11:30
Bezchmurnie
Bezchmurnie
 Wiatr z Ws
Wiatr: Ws 9 km/h
Temperatura: 3°C
Wind Chill: 0°C
Punkt Rosy: -1°C
Wilgotność: 75%
Ciśnienie: 1041 hPa
Podsumowanie: Bezchmurnie
Widoczność: większa niż 10 km
2018/11/17 10:30 EPBY 171030Z 09005KT CAVOK 03/M01 Q1041
EPZG - Zielona Góra, Ziemia Lubuska, Polska
Odległość od stacji: ZdPdZa 235km
Aktualizacja: 18-11-17 11:30
Częściowe zachmurzenie
Częściowe zachmurzenie
 Wiatr z PnWs
Wiatr: PnWs 17 km/h
Temperatura: 3°C
Wind Chill: -1°C
Punkt Rosy: 1°C
Wilgotność: 87%
Ciśnienie: 1039 hPa
Zachmurzenie: Częściowe zachmurzenie
Widoczność: 6 km
2018/11/17 10:30 EPZG 171030Z 05009KT 6000 NSC 03/01 Q1039